createdAt,value
2022-10-16T00:00:38.251Z,0.60
2022-10-16T00:03:05.597Z,0.50
2022-10-16T00:05:32.454Z,0.63
2022-10-16T00:07:59.067Z,0.50
2022-10-16T00:10:25.639Z,0.80
2022-10-16T00:12:52.138Z,0.70
2022-10-16T00:15:18.813Z,0.75
2022-10-16T00:17:45.232Z,0.90
2022-10-16T00:20:11.643Z,0.80
2022-10-16T00:22:38.096Z,0.90
2022-10-16T00:25:04.794Z,0.90
2022-10-16T00:27:31.199Z,0.98
2022-10-16T00:32:29.142Z,1.00
2022-10-16T00:34:55.656Z,1.25
2022-10-16T00:37:22.246Z,0.93
2022-10-16T00:39:48.784Z,1.17
2022-10-16T00:42:19.314Z,1.10
2022-10-16T00:44:53.491Z,1.30
2022-10-16T00:47:24.081Z,1.20
2022-10-16T00:49:53.036Z,1.30
2022-10-16T00:52:20.267Z,1.33
2022-10-16T00:54:47.676Z,1.50
2022-10-16T00:59:46.109Z,1.35
2022-10-16T01:02:15.282Z,1.52
2022-10-16T01:04:45.131Z,1.40
2022-10-16T01:07:30.558Z,1.30
2022-10-16T01:10:22.197Z,1.10
2022-10-16T01:12:51.776Z,1.42
2022-10-16T01:18:50.854Z,1.80
2022-10-16T01:21:23.769Z,1.60
2022-10-16T01:24:10.399Z,1.40
2022-10-16T01:27:10.746Z,1.50
2022-10-16T01:30:11.699Z,1.83
2022-10-16T01:32:43.373Z,1.60
2022-10-16T01:35:13.278Z,1.50
2022-10-16T01:37:46.881Z,1.73
2022-10-16T01:40:16.165Z,1.95
2022-10-16T01:42:51.400Z,1.60
2022-10-16T01:45:19.235Z,1.52
2022-10-16T01:47:46.696Z,1.70
2022-10-16T01:50:14.995Z,1.88
2022-10-16T01:52:44.622Z,1.63
2022-10-16T01:55:14.459Z,1.48
2022-10-16T01:57:42.687Z,1.30
2022-10-16T02:00:11.823Z,1.50
2022-10-16T02:02:41.114Z,1.52
2022-10-16T02:05:17.092Z,1.50
2022-10-16T02:07:43.791Z,1.40
2022-10-16T02:10:10.677Z,1.70
2022-10-16T02:12:40.496Z,1.23
2022-10-16T02:15:07.715Z,1.50
2022-10-16T02:17:34.476Z,1.15
2022-10-16T02:20:01.365Z,1.27
2022-10-16T02:22:31.445Z,1.40
2022-10-16T02:25:00.739Z,1.60
2022-10-16T02:27:40.183Z,1.35
2022-10-16T02:30:09.330Z,1.42
2022-10-16T02:32:38.229Z,1.30
2022-10-16T02:35:05.568Z,1.40
2022-10-16T02:37:32.332Z,1.40
2022-10-16T02:39:59.323Z,1.40
2022-10-16T02:42:31.016Z,1.58
2022-10-16T02:44:57.484Z,1.38
2022-10-16T02:47:23.915Z,1.48
2022-10-16T02:49:50.369Z,1.80
2022-10-16T02:52:16.940Z,1.83
2022-10-16T02:54:43.360Z,1.65
2022-10-16T02:57:09.794Z,2.00
2022-10-16T02:59:36.247Z,1.67
2022-10-16T03:02:02.670Z,1.92
2022-10-16T03:04:29.115Z,1.58
2022-10-16T03:06:55.564Z,1.55
2022-10-16T03:09:21.993Z,1.67
2022-10-16T03:11:48.479Z,1.60
2022-10-16T03:14:14.931Z,1.58
2022-10-16T03:16:41.395Z,1.70
2022-10-16T03:19:07.990Z,1.60
2022-10-16T03:21:34.465Z,1.40
2022-10-16T03:24:00.957Z,1.38
2022-10-16T03:26:27.413Z,2.00
2022-10-16T03:28:53.939Z,1.50
2022-10-16T03:31:20.424Z,1.58
2022-10-16T03:33:46.872Z,1.70
2022-10-16T03:36:13.564Z,1.30
2022-10-16T03:38:39.997Z,1.60
2022-10-16T03:41:08.704Z,1.60
2022-10-16T03:43:35.176Z,1.63
2022-10-16T03:46:01.685Z,1.52
2022-10-16T03:48:28.300Z,1.63
2022-10-16T03:50:55.847Z,1.50
2022-10-16T03:53:22.494Z,1.38
2022-10-16T03:55:49.054Z,1.40
2022-10-16T03:58:15.543Z,1.60
2022-10-16T04:00:46.371Z,1.95
2022-10-16T04:03:12.946Z,1.55
2022-10-16T04:05:39.891Z,1.67
2022-10-16T04:08:06.591Z,1.70
2022-10-16T04:10:33.125Z,1.50
2022-10-16T04:12:59.599Z,1.63
2022-10-16T04:15:26.347Z,1.60
2022-10-16T04:17:53.157Z,1.45
2022-10-16T04:20:19.802Z,1.63
2022-10-16T04:22:46.282Z,1.58
2022-10-16T04:25:12.883Z,1.65
2022-10-16T04:27:42.236Z,1.77
2022-10-16T04:30:12.037Z,1.65
2022-10-16T04:32:38.501Z,1.48
2022-10-16T04:35:05.312Z,1.98
2022-10-16T04:37:31.780Z,1.33
2022-10-16T04:39:58.334Z,1.30
2022-10-16T04:42:24.790Z,1.50
2022-10-16T04:44:51.400Z,2.00
2022-10-16T04:47:17.925Z,1.40
2022-10-16T04:49:44.488Z,1.50
2022-10-16T04:52:11.138Z,1.60
2022-10-16T04:54:37.791Z,1.70
2022-10-16T04:57:05.831Z,1.30
2022-10-16T04:59:32.369Z,1.50
2022-10-16T05:01:58.932Z,1.40
2022-10-16T05:04:25.461Z,1.52
2022-10-16T05:06:51.987Z,1.65
2022-10-16T05:09:18.736Z,1.50
2022-10-16T05:11:45.262Z,1.80
2022-10-16T05:16:38.303Z,1.80
2022-10-16T05:19:26.420Z,1.60
2022-10-16T05:21:51.513Z,1.77
2022-10-16T05:24:18.092Z,1.50
2022-10-16T05:26:55.207Z,1.70
2022-10-16T05:29:23.517Z,1.70
2022-10-16T05:31:54.170Z,1.50
2022-10-16T05:34:21.836Z,1.60
2022-10-16T05:36:48.377Z,1.30
2022-10-16T05:39:16.345Z,1.80
2022-10-16T05:41:43.629Z,1.65
2022-10-16T05:44:11.317Z,1.67
2022-10-16T05:46:37.880Z,1.38
2022-10-16T05:49:04.516Z,1.60
2022-10-16T05:51:31.172Z,2.85
2022-10-16T05:53:57.825Z,23.90
2022-10-16T05:56:24.381Z,26.35
2022-10-16T05:58:50.977Z,12.02
2022-10-16T06:01:19.600Z,5.63
2022-10-16T06:03:46.310Z,3.42
2022-10-16T06:06:15.173Z,2.20
2022-10-16T06:08:42.949Z,1.63
2022-10-16T06:11:12.058Z,1.90
2022-10-16T06:13:39.917Z,2.00
2022-10-16T06:16:06.979Z,1.90
2022-10-16T06:18:33.523Z,1.80
2022-10-16T06:21:00.116Z,2.05
2022-10-16T06:23:29.591Z,1.80
2022-10-16T06:26:05.499Z,1.83
2022-10-16T06:28:32.186Z,1.60
2022-10-16T06:31:05.619Z,1.85
2022-10-16T06:33:35.425Z,1.67
2022-10-16T06:36:15.125Z,2.00
2022-10-16T06:38:42.091Z,1.90
2022-10-16T06:41:10.691Z,1.60
2022-10-16T06:43:37.328Z,1.90
2022-10-16T06:46:05.891Z,1.67
2022-10-16T06:48:32.437Z,1.67
2022-10-16T06:51:19.515Z,2.15
2022-10-16T06:54:05.394Z,1.63
2022-10-16T06:56:33.183Z,1.55
2022-10-16T06:59:00.233Z,1.83
2022-10-16T07:01:27.356Z,1.90
2022-10-16T07:03:54.271Z,1.75
2022-10-16T07:06:22.952Z,1.80
2022-10-16T07:08:49.639Z,1.60
2022-10-16T07:11:18.583Z,1.90
2022-10-16T07:13:50.825Z,1.85
2022-10-16T07:16:22.724Z,1.88
2022-10-16T07:18:50.284Z,1.83
2022-10-16T07:21:20.418Z,1.75
2022-10-16T07:23:51.544Z,1.70
2022-10-16T07:26:18.362Z,1.90
2022-10-16T07:28:45.204Z,2.08
2022-10-16T07:31:14.376Z,2.17
2022-10-16T07:33:42.958Z,1.80
2022-10-16T07:36:12.478Z,1.90
2022-10-16T07:38:43.513Z,1.83
2022-10-16T07:41:14.150Z,1.50
2022-10-16T07:43:41.136Z,1.70
2022-10-16T07:46:07.770Z,1.70
2022-10-16T07:48:35.410Z,1.30
2022-10-16T07:51:04.537Z,1.60
2022-10-16T07:53:31.470Z,1.83
2022-10-16T07:56:05.067Z,1.70
2022-10-16T07:58:32.015Z,1.63
2022-10-16T08:00:59.110Z,1.80
2022-10-16T08:03:26.568Z,1.70
2022-10-16T08:05:53.134Z,1.70
2022-10-16T08:08:20.203Z,1.60
2022-10-16T08:10:46.857Z,1.08
2022-10-16T08:13:16.568Z,1.60
2022-10-16T08:15:44.125Z,1.70
2022-10-16T08:18:12.372Z,1.83
2022-10-16T08:20:39.919Z,1.70
2022-10-16T08:23:07.862Z,1.48
2022-10-16T08:25:38.373Z,1.50
2022-10-16T08:28:30.301Z,1.40
2022-10-16T08:30:57.990Z,1.55
2022-10-16T08:33:27.126Z,1.40
2022-10-16T08:35:56.879Z,1.27
2022-10-16T08:38:23.520Z,1.00
2022-10-16T08:40:52.872Z,1.00
2022-10-16T08:43:29.954Z,0.90
2022-10-16T08:46:20.750Z,0.73
2022-10-16T08:48:49.460Z,0.80
2022-10-16T08:51:49.422Z,0.70
2022-10-16T08:54:41.821Z,0.80
2022-10-16T08:57:13.407Z,0.60
2022-10-16T08:59:40.000Z,0.70
2022-10-16T09:02:22.102Z,0.77
2022-10-16T09:04:58.080Z,0.60
2022-10-16T09:07:36.077Z,0.70
2022-10-16T09:10:25.899Z,0.77
2022-10-16T09:13:19.190Z,0.60
2022-10-16T09:15:57.261Z,0.60
2022-10-16T09:18:46.620Z,0.85
2022-10-16T09:21:28.890Z,0.50
2022-10-16T09:23:58.009Z,0.75
2022-10-16T09:26:24.963Z,0.77
2022-10-16T09:28:53.624Z,0.70
2022-10-16T09:31:22.022Z,0.60
2022-10-16T09:33:54.280Z,0.60
2022-10-16T09:36:21.896Z,0.55
2022-10-16T09:38:48.801Z,0.65
2022-10-16T09:41:20.398Z,0.63
2022-10-16T09:43:46.983Z,0.50
2022-10-16T09:46:35.797Z,0.57
2022-10-16T09:49:23.658Z,0.60
2022-10-16T09:51:50.720Z,0.40
2022-10-16T09:54:21.907Z,0.60
2022-10-16T09:56:53.318Z,0.60
2022-10-16T09:59:22.937Z,0.60
2022-10-16T10:01:54.387Z,0.57
2022-10-16T10:04:22.639Z,0.50
2022-10-16T10:06:52.380Z,0.52
2022-10-16T10:09:22.332Z,0.60
2022-10-16T10:11:56.183Z,0.70
2022-10-16T10:14:42.463Z,0.52
2022-10-16T10:17:21.057Z,0.68
2022-10-16T10:19:52.012Z,0.45
2022-10-16T10:22:24.661Z,0.43
2022-10-16T10:25:00.520Z,0.50
2022-10-16T10:27:50.386Z,0.43
2022-10-16T10:30:45.765Z,0.70
2022-10-16T10:33:39.758Z,0.45
2022-10-16T10:36:35.864Z,0.40
2022-10-16T10:39:50.127Z,0.57
2022-10-16T10:42:33.411Z,0.50
2022-10-16T10:45:27.049Z,0.40
2022-10-16T10:48:13.298Z,0.52
2022-10-16T10:50:44.538Z,0.52
2022-10-16T10:53:17.201Z,0.50
2022-10-16T10:55:52.952Z,0.30
2022-10-16T10:58:25.574Z,0.40
2022-10-16T11:00:52.108Z,0.47
2022-10-16T11:03:58.179Z,0.82
2022-10-16T11:06:28.350Z,0.68
2022-10-16T11:09:02.150Z,0.47
2022-10-16T11:11:31.678Z,0.47
2022-10-16T11:14:05.692Z,0.50
2022-10-16T11:16:41.355Z,0.50
2022-10-16T11:19:31.050Z,0.40
2022-10-16T11:22:05.992Z,0.50
2022-10-16T11:25:29.396Z,0.40
2022-10-16T11:28:22.067Z,0.65
2022-10-16T11:31:05.068Z,0.60
2022-10-16T11:33:42.503Z,0.50
2022-10-16T11:36:20.485Z,0.40
2022-10-16T11:38:56.427Z,0.80
2022-10-16T11:41:28.604Z,0.47
2022-10-16T11:44:04.522Z,0.50
2022-10-16T11:46:32.257Z,0.30
2022-10-16T11:49:07.838Z,0.40
2022-10-16T11:51:40.542Z,0.50
2022-10-16T11:54:29.232Z,0.35
2022-10-16T11:57:04.916Z,0.40
2022-10-16T11:59:45.719Z,0.50
2022-10-16T12:02:40.553Z,0.30
2022-10-16T12:05:22.049Z,0.22
2022-10-16T12:08:01.889Z,0.30
2022-10-16T12:10:32.702Z,0.38
2022-10-16T12:12:59.371Z,0.40
2022-10-16T12:18:25.893Z,0.30
2022-10-16T12:21:05.478Z,0.40
2022-10-16T12:23:35.729Z,0.40
2022-10-16T12:26:03.831Z,0.40
2022-10-16T12:28:32.936Z,0.40
2022-10-16T12:31:07.905Z,0.30
2022-10-16T12:33:36.465Z,0.50
2022-10-16T12:36:31.548Z,0.95
2022-10-16T12:38:58.510Z,0.32
2022-10-16T12:41:33.199Z,0.50
2022-10-16T12:44:04.644Z,0.25
2022-10-16T12:46:31.230Z,0.40
2022-10-16T12:49:13.089Z,0.30
2022-10-16T12:51:40.257Z,0.30
2022-10-16T12:54:18.847Z,0.50
2022-10-16T12:56:48.455Z,0.28
2022-10-16T12:59:30.157Z,0.40
2022-10-16T13:02:40.690Z,0.30
2022-10-16T13:05:15.557Z,0.40
2022-10-16T13:08:02.720Z,0.47
2022-10-16T13:10:42.131Z,0.32
2022-10-16T13:13:33.120Z,0.20
2022-10-16T13:16:09.104Z,0.30
2022-10-16T13:18:55.126Z,0.40
2022-10-16T13:21:47.419Z,0.32
2022-10-16T13:24:26.539Z,0.40
2022-10-16T13:27:30.765Z,0.30
2022-10-16T13:30:19.680Z,0.20
2022-10-16T13:35:23.962Z,0.50
2022-10-16T13:37:51.398Z,0.30
2022-10-16T13:40:22.894Z,0.30
2022-10-16T13:42:50.583Z,0.35
2022-10-16T13:45:28.860Z,0.30
2022-10-16T13:48:06.387Z,0.32
2022-10-16T13:50:33.061Z,0.30
2022-10-16T13:53:07.260Z,0.30
2022-10-16T13:55:34.344Z,0.25
2022-10-16T13:58:14.465Z,0.30
2022-10-16T14:00:42.160Z,0.30
2022-10-16T14:03:14.869Z,0.30
2022-10-16T14:05:50.297Z,0.30
2022-10-16T14:08:17.373Z,0.20
2022-10-16T14:10:44.335Z,0.30
2022-10-16T14:13:18.108Z,0.50
2022-10-16T14:15:47.825Z,0.20
2022-10-16T14:18:23.124Z,0.40
2022-10-16T14:20:50.808Z,0.35
2022-10-16T14:23:24.963Z,0.30
2022-10-16T14:25:51.656Z,0.35
2022-10-16T14:28:21.213Z,0.30
2022-10-16T14:30:55.538Z,0.20
2022-10-16T14:33:42.278Z,0.30
2022-10-16T14:36:14.692Z,0.20
2022-10-16T14:38:44.385Z,0.22
2022-10-16T14:41:11.128Z,0.30
2022-10-16T14:43:39.412Z,0.40
2022-10-16T14:46:14.395Z,0.30
2022-10-16T14:48:47.089Z,0.30
2022-10-16T14:51:18.134Z,0.25
2022-10-16T14:53:44.845Z,0.30
2022-10-16T14:56:33.299Z,0.40
2022-10-16T14:59:00.652Z,0.35
2022-10-16T15:01:27.343Z,0.30
2022-10-16T15:03:55.676Z,0.30
2022-10-16T15:06:23.339Z,0.30
2022-10-16T15:08:50.205Z,0.30
2022-10-16T15:11:20.559Z,0.57
2022-10-16T15:13:47.420Z,0.30
2022-10-16T15:16:16.350Z,0.40
2022-10-16T15:18:43.438Z,0.40
2022-10-16T15:21:37.314Z,0.30
2022-10-16T15:24:03.959Z,0.50
2022-10-16T15:26:31.460Z,0.22
2022-10-16T15:28:58.466Z,0.28
2022-10-16T15:31:25.313Z,0.40
2022-10-16T15:33:55.344Z,0.20
2022-10-16T15:36:29.884Z,0.40
2022-10-16T15:38:57.101Z,0.40
2022-10-16T15:41:24.393Z,0.30
2022-10-16T15:43:52.250Z,0.55
2022-10-16T15:46:20.811Z,0.40
2022-10-16T15:48:49.174Z,0.40
2022-10-16T15:51:15.917Z,0.47
2022-10-16T15:53:42.677Z,0.68
2022-10-16T15:56:10.719Z,0.60
2022-10-16T15:58:37.648Z,0.70
2022-10-16T16:01:05.423Z,0.60
2022-10-16T16:03:33.375Z,0.65
2022-10-16T16:06:05.234Z,0.55
2022-10-16T16:08:31.961Z,0.50
2022-10-16T16:11:00.453Z,0.50
2022-10-16T16:13:35.207Z,0.60
2022-10-16T16:16:04.585Z,0.38
2022-10-16T16:18:31.187Z,0.40
2022-10-16T16:20:58.064Z,1.15
2022-10-16T16:23:25.658Z,2.13
2022-10-16T16:26:07.479Z,2.88
2022-10-16T16:28:34.253Z,2.90
2022-10-16T16:31:00.725Z,2.15
2022-10-16T16:33:27.278Z,2.25
2022-10-16T16:36:00.641Z,1.98
2022-10-16T16:38:27.709Z,2.30
2022-10-16T16:40:56.340Z,2.20
2022-10-16T16:43:27.388Z,2.17
2022-10-16T16:45:54.260Z,2.13
2022-10-16T16:48:21.285Z,1.95
2022-10-16T16:50:47.853Z,1.60
2022-10-16T16:53:14.381Z,1.60
2022-10-16T16:55:40.847Z,1.80
2022-10-16T16:58:07.298Z,1.85
2022-10-16T17:00:33.687Z,2.20
2022-10-16T17:03:00.303Z,2.20
2022-10-16T17:05:26.963Z,1.95
2022-10-16T17:07:53.385Z,2.10
2022-10-16T17:10:19.790Z,1.90
2022-10-16T17:12:46.336Z,1.73
2022-10-16T17:15:12.783Z,1.98
2022-10-16T17:17:39.257Z,2.17
2022-10-16T17:20:06.069Z,1.92
2022-10-16T17:22:32.499Z,2.00
2022-10-16T17:24:58.911Z,1.92
2022-10-16T17:27:25.412Z,1.80
2022-10-16T17:29:52.460Z,2.97
2022-10-16T17:32:20.757Z,3.28
2022-10-16T17:34:47.336Z,3.10
2022-10-16T17:37:15.748Z,2.78
2022-10-16T17:39:44.530Z,2.40
2022-10-16T17:42:10.950Z,2.28
2022-10-16T17:44:37.413Z,2.30
2022-10-16T17:47:03.813Z,2.22
2022-10-16T17:49:30.411Z,2.20
2022-10-16T17:51:56.967Z,2.45
2022-10-16T17:54:23.479Z,2.35
2022-10-16T17:56:49.923Z,2.40
2022-10-16T17:59:16.545Z,2.35
2022-10-16T18:01:45.864Z,2.67
2022-10-16T18:04:15.278Z,2.70
2022-10-16T18:06:43.820Z,2.72
2022-10-16T18:09:12.368Z,2.60
2022-10-16T18:11:38.816Z,2.58
2022-10-16T18:14:05.498Z,3.00
2022-10-16T18:16:32.634Z,2.58
2022-10-16T18:18:59.576Z,2.30
2022-10-16T18:21:29.910Z,2.28
2022-10-16T18:23:58.223Z,2.60
2022-10-16T18:26:24.906Z,4.25
2022-10-16T18:28:56.463Z,8.98
2022-10-16T18:31:23.642Z,9.57
2022-10-16T18:33:53.032Z,8.48
2022-10-16T18:36:22.408Z,7.90
2022-10-16T18:38:49.281Z,6.55
2022-10-16T18:41:15.770Z,6.35
2022-10-16T18:43:42.238Z,6.00
2022-10-16T18:46:11.805Z,5.22
2022-10-16T18:48:40.156Z,5.28
2022-10-16T18:51:18.649Z,4.93
2022-10-16T18:53:47.889Z,4.80
2022-10-16T18:56:15.148Z,4.70
2022-10-16T18:58:43.116Z,4.25
2022-10-16T19:01:11.719Z,4.20
2022-10-16T19:03:43.241Z,4.47
2022-10-16T19:06:12.300Z,4.13
2022-10-16T19:08:39.199Z,4.15
2022-10-16T19:11:07.649Z,4.70
2022-10-16T19:13:34.338Z,4.60
2022-10-16T19:16:19.491Z,4.60
2022-10-16T19:18:47.686Z,3.67
2022-10-16T19:21:15.150Z,3.38
2022-10-16T19:23:42.265Z,3.80
2022-10-16T19:26:14.814Z,3.97
2022-10-16T19:28:41.598Z,3.53
2022-10-16T19:31:11.607Z,3.40
2022-10-16T19:33:38.538Z,3.25
2022-10-16T19:36:14.080Z,3.10
2022-10-16T19:38:41.191Z,2.55
2022-10-16T19:41:12.639Z,2.95
2022-10-16T19:43:39.164Z,3.00
2022-10-16T19:46:14.293Z,3.25
2022-10-16T19:48:41.207Z,3.10
2022-10-16T19:51:11.873Z,3.17
2022-10-16T19:53:38.306Z,2.80
2022-10-16T19:56:16.135Z,3.78
2022-10-16T19:58:43.363Z,3.38
2022-10-16T20:01:09.880Z,3.58
2022-10-16T20:03:36.491Z,2.95
2022-10-16T20:06:06.899Z,3.13
2022-10-16T20:08:34.590Z,3.10
2022-10-16T20:11:01.546Z,2.78
2022-10-16T20:13:28.290Z,3.13
2022-10-16T20:15:54.732Z,2.75
2022-10-16T20:18:21.587Z,4.15
2022-10-16T20:20:50.906Z,5.75
2022-10-16T20:23:18.526Z,4.28
2022-10-16T20:25:45.602Z,3.50
2022-10-16T20:28:18.232Z,3.70
2022-10-16T20:30:46.623Z,2.97
2022-10-16T20:33:13.741Z,3.67
2022-10-16T20:35:42.462Z,3.15
2022-10-16T20:38:09.334Z,3.60
2022-10-16T20:40:39.268Z,4.15
2022-10-16T20:43:06.338Z,3.55
2022-10-16T20:45:32.996Z,3.78
2022-10-16T20:47:59.957Z,3.88
2022-10-16T20:50:32.660Z,3.80
2022-10-16T20:53:00.223Z,3.67
2022-10-16T20:55:27.227Z,4.20
2022-10-16T20:57:53.947Z,3.72
2022-10-16T21:00:20.438Z,3.78
2022-10-16T21:02:50.332Z,4.30
2022-10-16T21:05:16.945Z,3.58
2022-10-16T21:07:43.462Z,4.20
2022-10-16T21:10:10.164Z,5.05
2022-10-16T21:12:36.589Z,4.65
2022-10-16T21:15:14.498Z,4.40
2022-10-16T21:17:41.448Z,4.20
2022-10-16T21:20:08.322Z,4.63
2022-10-16T21:22:34.729Z,5.00
2022-10-16T21:25:01.134Z,5.22
2022-10-16T21:27:27.531Z,5.22
2022-10-16T21:29:54.347Z,5.18
2022-10-16T21:32:23.608Z,5.15
2022-10-16T21:34:50.017Z,5.28
2022-10-16T21:37:16.455Z,4.82
2022-10-16T21:39:42.924Z,5.50
2022-10-16T21:42:09.388Z,4.53
2022-10-16T21:44:35.903Z,4.85
2022-10-16T21:47:02.321Z,5.30
2022-10-16T21:49:28.884Z,3.65
2022-10-16T21:51:55.344Z,3.75
2022-10-16T21:54:23.713Z,3.20
2022-10-16T21:56:50.427Z,3.40
2022-10-16T21:59:16.944Z,2.90
2022-10-16T22:01:44.047Z,2.97
2022-10-16T22:04:11.817Z,2.83
2022-10-16T22:06:38.702Z,2.60
2022-10-16T22:09:05.225Z,2.78
2022-10-16T22:11:37.756Z,2.30
2022-10-16T22:14:05.755Z,2.50
2022-10-16T22:16:32.502Z,2.55
2022-10-16T22:18:59.797Z,2.47
2022-10-16T22:21:28.412Z,2.30
2022-10-16T22:23:55.111Z,2.05
2022-10-16T22:26:21.706Z,2.53
2022-10-16T22:28:48.208Z,2.20
2022-10-16T22:31:15.121Z,2.30
2022-10-16T22:33:42.161Z,2.17
2022-10-16T22:36:11.638Z,2.10
2022-10-16T22:38:38.310Z,2.33
2022-10-16T22:41:06.452Z,2.50
2022-10-16T22:43:36.296Z,2.38
2022-10-16T22:46:04.576Z,2.80
2022-10-16T22:48:30.997Z,2.70
2022-10-16T22:50:57.426Z,2.70
2022-10-16T22:53:23.935Z,2.92
2022-10-16T22:55:50.424Z,2.85
2022-10-16T22:58:16.888Z,2.70
2022-10-16T23:00:44.505Z,2.65
2022-10-16T23:03:11.495Z,2.65
2022-10-16T23:05:39.140Z,2.40
2022-10-16T23:08:06.039Z,2.53
2022-10-16T23:10:32.916Z,2.90
2022-10-16T23:12:59.318Z,3.00
2022-10-16T23:15:25.750Z,2.17
2022-10-16T23:17:52.164Z,2.83
2022-10-16T23:20:18.582Z,2.58
2022-10-16T23:22:45.032Z,2.50
2022-10-16T23:25:11.526Z,2.75
2022-10-16T23:27:37.939Z,2.30
2022-10-16T23:30:06.820Z,2.65
2022-10-16T23:32:33.872Z,2.30
2022-10-16T23:35:00.366Z,2.47
2022-10-16T23:37:27.035Z,2.40
2022-10-16T23:39:54.045Z,2.20
2022-10-16T23:42:20.540Z,2.40
2022-10-16T23:44:47.031Z,1.83
2022-10-16T23:47:13.447Z,2.30
2022-10-16T23:49:39.857Z,2.20
2022-10-16T23:52:07.141Z,1.90
2022-10-16T23:54:33.584Z,2.00
2022-10-16T23:57:00.181Z,2.08
2022-10-16T23:59:26.613Z,2.05
